sensor_id;sensor_type;location;lat;lon;timestamp;P1;durP1;ratioP1;P2;durP2;ratioP2
75990;SDS011;64673;52.276;10.560;2024-02-26T00:01:40;0.05;;;0.05;;
75990;SDS011;64673;52.276;10.560;2024-02-26T00:04:06;0.52;;;0.40;;
75990;SDS011;64673;52.276;10.560;2024-02-26T00:06:31;1.88;;;0.63;;
75990;SDS011;64673;52.276;10.560;2024-02-26T00:08:57;0.05;;;0.05;;
75990;SDS011;64673;52.276;10.560;2024-02-26T00:11:22;0.47;;;0.32;;
75990;SDS011;64673;52.276;10.560;2024-02-26T00:13:48;0.10;;;0.10;;
75990;SDS011;64673;52.276;10.560;2024-02-26T00:16:13;0.60;;;0.40;;
75990;SDS011;64673;52.276;10.560;2024-02-26T00:18:39;0.40;;;0.17;;
75990;SDS011;64673;52.276;10.560;2024-02-26T00:21:04;0.38;;;0.38;;
75990;SDS011;64673;52.276;10.560;2024-02-26T00:23:30;0.47;;;0.32;;
75990;SDS011;64673;52.276;10.560;2024-02-26T00:25:55;2.63;;;0.43;;
75990;SDS011;64673;52.276;10.560;2024-02-26T00:28:21;0.40;;;0.40;;
75990;SDS011;64673;52.276;10.560;2024-02-26T00:30:46;0.00;;;0.00;;
75990;SDS011;64673;52.276;10.560;2024-02-26T00:33:12;1.33;;;0.43;;
75990;SDS011;64673;52.276;10.560;2024-02-26T00:35:37;0.32;;;0.20;;
75990;SDS011;64673;52.276;10.560;2024-02-26T00:38:03;0.08;;;0.08;;
75990;SDS011;64673;52.276;10.560;2024-02-26T00:40:29;0.82;;;0.10;;
75990;SDS011;64673;52.276;10.560;2024-02-26T00:42:54;0.15;;;0.15;;
75990;SDS011;64673;52.276;10.560;2024-02-26T00:45:20;0.10;;;0.05;;
75990;SDS011;64673;52.276;10.560;2024-02-26T00:47:45;0.70;;;0.43;;
75990;SDS011;64673;52.276;10.560;2024-02-26T00:50:12;0.20;;;0.10;;
75990;SDS011;64673;52.276;10.560;2024-02-26T00:52:37;0.15;;;0.15;;
75990;SDS011;64673;52.276;10.560;2024-02-26T00:55:03;0.00;;;0.00;;
75990;SDS011;64673;52.276;10.560;2024-02-26T00:57:28;0.15;;;0.15;;
75990;SDS011;64673;52.276;10.560;2024-02-26T00:59:53;0.10;;;0.10;;
75990;SDS011;64673;52.276;10.560;2024-02-26T01:02:21;0.00;;;0.00;;
75990;SDS011;64673;52.276;10.560;2024-02-26T01:04:46;0.10;;;0.10;;
75990;SDS011;64673;52.276;10.560;2024-02-26T01:07:12;0.10;;;0.10;;
75990;SDS011;64673;52.276;10.560;2024-02-26T01:09:37;0.20;;;0.20;;
75990;SDS011;64673;52.276;10.560;2024-02-26T01:12:03;4.77;;;0.87;;
75990;SDS011;64673;52.276;10.560;2024-02-26T01:14:28;0.08;;;0.00;;
75990;SDS011;64673;52.276;10.560;2024-02-26T01:16:54;1.17;;;1.17;;
75990;SDS011;64673;52.276;10.560;2024-02-26T01:19:19;0.13;;;0.13;;
75990;SDS011;64673;52.276;10.560;2024-02-26T01:21:44;0.43;;;0.43;;
75990;SDS011;64673;52.276;10.560;2024-02-26T01:24:10;0.20;;;0.20;;
75990;SDS011;64673;52.276;10.560;2024-02-26T01:26:35;0.00;;;0.00;;
75990;SDS011;64673;52.276;10.560;2024-02-26T01:29:01;0.05;;;0.00;;
75990;SDS011;64673;52.276;10.560;2024-02-26T01:31:26;1.55;;;0.52;;
75990;SDS011;64673;52.276;10.560;2024-02-26T01:33:51;0.63;;;0.63;;
75990;SDS011;64673;52.276;10.560;2024-02-26T01:36:17;0.30;;;0.30;;
75990;SDS011;64673;52.276;10.560;2024-02-26T01:38:43;0.63;;;0.63;;
75990;SDS011;64673;52.276;10.560;2024-02-26T01:41:08;0.22;;;0.20;;
75990;SDS011;64673;52.276;10.560;2024-02-26T01:43:33;0.30;;;0.30;;
75990;SDS011;64673;52.276;10.560;2024-02-26T01:45:59;0.60;;;0.60;;
75990;SDS011;64673;52.276;10.560;2024-02-26T01:48:24;0.43;;;0.20;;
75990;SDS011;64673;52.276;10.560;2024-02-26T01:50:50;0.22;;;0.20;;
75990;SDS011;64673;52.276;10.560;2024-02-26T01:53:16;1.77;;;0.55;;
75990;SDS011;64673;52.276;10.560;2024-02-26T01:55:42;0.03;;;0.03;;
75990;SDS011;64673;52.276;10.560;2024-02-26T01:58:07;1.08;;;0.90;;
75990;SDS011;64673;52.276;10.560;2024-02-26T02:00:34;0.08;;;0.08;;
75990;SDS011;64673;52.276;10.560;2024-02-26T02:02:59;1.27;;;0.75;;
75990;SDS011;64673;52.276;10.560;2024-02-26T02:05:26;0.10;;;0.10;;
75990;SDS011;64673;52.276;10.560;2024-02-26T02:07:51;0.20;;;0.20;;
75990;SDS011;64673;52.276;10.560;2024-02-26T02:10:17;0.00;;;0.00;;
75990;SDS011;64673;52.276;10.560;2024-02-26T02:12:47;0.15;;;0.10;;
75990;SDS011;64673;52.276;10.560;2024-02-26T02:15:13;0.10;;;0.10;;
75990;SDS011;64673;52.276;10.560;2024-02-26T02:17:39;0.13;;;0.10;;
75990;SDS011;64673;52.276;10.560;2024-02-26T02:20:07;0.10;;;0.00;;
75990;SDS011;64673;52.276;10.560;2024-02-26T02:22:33;0.20;;;0.10;;
75990;SDS011;64673;52.276;10.560;2024-02-26T02:24:59;0.40;;;0.40;;
75990;SDS011;64673;52.276;10.560;2024-02-26T02:27:25;0.32;;;0.32;;
75990;SDS011;64673;52.276;10.560;2024-02-26T02:29:51;0.10;;;0.10;;
75990;SDS011;64673;52.276;10.560;2024-02-26T02:32:16;0.00;;;0.00;;
75990;SDS011;64673;52.276;10.560;2024-02-26T02:34:42;0.00;;;0.00;;
75990;SDS011;64673;52.276;10.560;2024-02-26T02:37:08;1.00;;;0.70;;
75990;SDS011;64673;52.276;10.560;2024-02-26T02:39:33;0.00;;;0.00;;
75990;SDS011;64673;52.276;10.560;2024-02-26T02:41:58;0.13;;;0.10;;
75990;SDS011;64673;52.276;10.560;2024-02-26T02:44:23;0.00;;;0.00;;
75990;SDS011;64673;52.276;10.560;2024-02-26T02:46:49;0.00;;;0.00;;
75990;SDS011;64673;52.276;10.560;2024-02-26T02:49:15;0.40;;;0.40;;
75990;SDS011;64673;52.276;10.560;2024-02-26T02:51:41;0.57;;;0.52;;
75990;SDS011;64673;52.276;10.560;2024-02-26T02:54:07;0.17;;;0.15;;
75990;SDS011;64673;52.276;10.560;2024-02-26T02:56:32;0.00;;;0.00;;
75990;SDS011;64673;52.276;10.560;2024-02-26T02:58:57;0.05;;;0.05;;
75990;SDS011;64673;52.276;10.560;2024-02-26T03:01:23;0.00;;;0.00;;
75990;SDS011;64673;52.276;10.560;2024-02-26T03:03:48;0.00;;;0.00;;
75990;SDS011;64673;52.276;10.560;2024-02-26T03:06:13;0.35;;;0.13;;
75990;SDS011;64673;52.276;10.560;2024-02-26T03:08:39;0.00;;;0.00;;
75990;SDS011;64673;52.276;10.560;2024-02-26T03:11:04;0.20;;;0.10;;
75990;SDS011;64673;52.276;10.560;2024-02-26T03:13:31;0.00;;;0.00;;
75990;SDS011;64673;52.276;10.560;2024-02-26T03:15:56;0.50;;;0.15;;
75990;SDS011;64673;52.276;10.560;2024-02-26T03:18:22;0.00;;;0.00;;
75990;SDS011;64673;52.276;10.560;2024-02-26T03:20:47;0.40;;;0.40;;
75990;SDS011;64673;52.276;10.560;2024-02-26T03:23:13;0.65;;;0.50;;
75990;SDS011;64673;52.276;10.560;2024-02-26T03:25:41;0.10;;;0.10;;
75990;SDS011;64673;52.276;10.560;2024-02-26T03:28:07;0.00;;;0.00;;
75990;SDS011;64673;52.276;10.560;2024-02-26T03:30:33;0.40;;;0.40;;
75990;SDS011;64673;52.276;10.560;2024-02-26T03:32:58;0.13;;;0.08;;
75990;SDS011;64673;52.276;10.560;2024-02-26T03:35:23;0.23;;;0.23;;
75990;SDS011;64673;52.276;10.560;2024-02-26T03:37:48;0.95;;;0.20;;
75990;SDS011;64673;52.276;10.560;2024-02-26T03:40:16;0.10;;;0.10;;
75990;SDS011;64673;52.276;10.560;2024-02-26T03:42:43;1.45;;;0.80;;
75990;SDS011;64673;52.276;10.560;2024-02-26T03:45:09;0.10;;;0.10;;
75990;SDS011;64673;52.276;10.560;2024-02-26T03:47:34;0.00;;;0.00;;
75990;SDS011;64673;52.276;10.560;2024-02-26T03:49:59;0.10;;;0.10;;
75990;SDS011;64673;52.276;10.560;2024-02-26T03:52:25;0.08;;;0.08;;
75990;SDS011;64673;52.276;10.560;2024-02-26T03:54:51;0.35;;;0.25;;
75990;SDS011;64673;52.276;10.560;2024-02-26T03:57:17;0.10;;;0.10;;
75990;SDS011;64673;52.276;10.560;2024-02-26T03:59:42;0.00;;;0.00;;
75990;SDS011;64673;52.276;10.560;2024-02-26T04:02:07;0.10;;;0.10;;
75990;SDS011;64673;52.276;10.560;2024-02-26T04:04:34;1.75;;;0.52;;
75990;SDS011;64673;52.276;10.560;2024-02-26T04:07:00;0.15;;;0.15;;
75990;SDS011;64673;52.276;10.560;2024-02-26T04:09:25;0.00;;;0.00;;
75990;SDS011;64673;52.276;10.560;2024-02-26T04:11:50;0.10;;;0.10;;
75990;SDS011;64673;52.276;10.560;2024-02-26T04:14:16;0.08;;;0.08;;
75990;SDS011;64673;52.276;10.560;2024-02-26T04:16:41;0.15;;;0.15;;
75990;SDS011;64673;52.276;10.560;2024-02-26T04:19:06;0.40;;;0.17;;
75990;SDS011;64673;52.276;10.560;2024-02-26T04:21:32;0.30;;;0.30;;
75990;SDS011;64673;52.276;10.560;2024-02-26T04:23:57;0.70;;;0.45;;
75990;SDS011;64673;52.276;10.560;2024-02-26T04:26:26;0.15;;;0.10;;
75990;SDS011;64673;52.276;10.560;2024-02-26T04:28:52;0.30;;;0.30;;
75990;SDS011;64673;52.276;10.560;2024-02-26T04:31:18;0.20;;;0.20;;
75990;SDS011;64673;52.276;10.560;2024-02-26T04:33:43;0.00;;;0.00;;
75990;SDS011;64673;52.276;10.560;2024-02-26T04:36:13;0.45;;;0.45;;
75990;SDS011;64673;52.276;10.560;2024-02-26T04:38:40;0.47;;;0.47;;
75990;SDS011;64673;52.276;10.560;2024-02-26T04:41:05;0.63;;;0.13;;
75990;SDS011;64673;52.276;10.560;2024-02-26T04:43:31;0.25;;;0.25;;
75990;SDS011;64673;52.276;10.560;2024-02-26T04:45:56;0.93;;;0.50;;
75990;SDS011;64673;52.276;10.560;2024-02-26T04:48:22;1.90;;;0.25;;
75990;SDS011;64673;52.276;10.560;2024-02-26T04:50:48;0.55;;;0.28;;
75990;SDS011;64673;52.276;10.560;2024-02-26T04:53:13;0.50;;;0.43;;
75990;SDS011;64673;52.276;10.560;2024-02-26T04:55:38;0.32;;;0.32;;
75990;SDS011;64673;52.276;10.560;2024-02-26T04:58:04;0.30;;;0.30;;
75990;SDS011;64673;52.276;10.560;2024-02-26T05:00:29;0.00;;;0.00;;
75990;SDS011;64673;52.276;10.560;2024-02-26T05:02:54;0.55;;;0.52;;
75990;SDS011;64673;52.276;10.560;2024-02-26T05:05:20;0.00;;;0.00;;
75990;SDS011;64673;52.276;10.560;2024-02-26T05:07:45;0.28;;;0.28;;
75990;SDS011;64673;52.276;10.560;2024-02-26T05:10:10;0.33;;;0.30;;
75990;SDS011;64673;52.276;10.560;2024-02-26T05:12:36;0.05;;;0.05;;
75990;SDS011;64673;52.276;10.560;2024-02-26T05:15:02;0.25;;;0.25;;
75990;SDS011;64673;52.276;10.560;2024-02-26T05:17:28;0.00;;;0.00;;
75990;SDS011;64673;52.276;10.560;2024-02-26T05:19:53;0.20;;;0.20;;
75990;SDS011;64673;52.276;10.560;2024-02-26T05:22:18;0.68;;;0.35;;
75990;SDS011;64673;52.276;10.560;2024-02-26T05:24:44;0.95;;;0.82;;
75990;SDS011;64673;52.276;10.560;2024-02-26T05:27:09;0.35;;;0.22;;
75990;SDS011;64673;52.276;10.560;2024-02-26T05:29:35;0.05;;;0.05;;
75990;SDS011;64673;52.276;10.560;2024-02-26T05:32:01;0.40;;;0.35;;
75990;SDS011;64673;52.276;10.560;2024-02-26T05:34:26;0.35;;;0.28;;
75990;SDS011;64673;52.276;10.560;2024-02-26T05:36:51;0.08;;;0.08;;
75990;SDS011;64673;52.276;10.560;2024-02-26T05:39:17;0.35;;;0.35;;
75990;SDS011;64673;52.276;10.560;2024-02-26T05:41:42;0.30;;;0.25;;
75990;SDS011;64673;52.276;10.560;2024-02-26T05:44:08;0.00;;;0.00;;
75990;SDS011;64673;52.276;10.560;2024-02-26T05:46:35;2.28;;;1.00;;
75990;SDS011;64673;52.276;10.560;2024-02-26T05:49:00;0.28;;;0.13;;
75990;SDS011;64673;52.276;10.560;2024-02-26T05:51:26;0.68;;;0.17;;
75990;SDS011;64673;52.276;10.560;2024-02-26T05:53:51;1.38;;;0.68;;
75990;SDS011;64673;52.276;10.560;2024-02-26T05:56:18;0.30;;;0.30;;
75990;SDS011;64673;52.276;10.560;2024-02-26T05:58:44;1.17;;;0.38;;
75990;SDS011;64673;52.276;10.560;2024-02-26T06:01:10;0.15;;;0.15;;
75990;SDS011;64673;52.276;10.560;2024-02-26T06:03:35;0.20;;;0.20;;
75990;SDS011;64673;52.276;10.560;2024-02-26T06:06:00;0.37;;;0.20;;
75990;SDS011;64673;52.276;10.560;2024-02-26T06:08:27;0.65;;;0.40;;
75990;SDS011;64673;52.276;10.560;2024-02-26T06:10:52;1.13;;;0.65;;
75990;SDS011;64673;52.276;10.560;2024-02-26T06:13:17;1.23;;;0.60;;
75990;SDS011;64673;52.276;10.560;2024-02-26T06:15:43;1.03;;;0.77;;
75990;SDS011;64673;52.276;10.560;2024-02-26T06:18:08;0.38;;;0.38;;
75990;SDS011;64673;52.276;10.560;2024-02-26T06:20:33;0.88;;;0.35;;
75990;SDS011;64673;52.276;10.560;2024-02-26T06:22:59;0.93;;;0.30;;
75990;SDS011;64673;52.276;10.560;2024-02-26T06:25:24;0.75;;;0.32;;
75990;SDS011;64673;52.276;10.560;2024-02-26T06:27:50;0.50;;;0.30;;
75990;SDS011;64673;52.276;10.560;2024-02-26T06:30:16;3.53;;;0.52;;
75990;SDS011;64673;52.276;10.560;2024-02-26T06:32:41;2.63;;;0.70;;
75990;SDS011;64673;52.276;10.560;2024-02-26T06:35:07;0.93;;;0.17;;
75990;SDS011;64673;52.276;10.560;2024-02-26T06:37:34;0.77;;;0.32;;
75990;SDS011;64673;52.276;10.560;2024-02-26T06:40:00;0.95;;;0.20;;
75990;SDS011;64673;52.276;10.560;2024-02-26T06:42:28;0.30;;;0.30;;
75990;SDS011;64673;52.276;10.560;2024-02-26T06:44:55;0.22;;;0.22;;
75990;SDS011;64673;52.276;10.560;2024-02-26T06:47:20;0.47;;;0.32;;
75990;SDS011;64673;52.276;10.560;2024-02-26T06:49:46;2.20;;;0.52;;
75990;SDS011;64673;52.276;10.560;2024-02-26T06:52:11;0.77;;;0.43;;
75990;SDS011;64673;52.276;10.560;2024-02-26T06:54:36;0.60;;;0.57;;
75990;SDS011;64673;52.276;10.560;2024-02-26T06:57:02;1.63;;;0.57;;
75990;SDS011;64673;52.276;10.560;2024-02-26T06:59:28;0.95;;;0.77;;
75990;SDS011;64673;52.276;10.560;2024-02-26T07:01:53;1.70;;;0.67;;
75990;SDS011;64673;52.276;10.560;2024-02-26T07:04:19;1.10;;;0.73;;
75990;SDS011;64673;52.276;10.560;2024-02-26T07:06:45;1.42;;;1.05;;
75990;SDS011;64673;52.276;10.560;2024-02-26T07:09:11;0.77;;;0.52;;
75990;SDS011;64673;52.276;10.560;2024-02-26T07:11:37;0.85;;;0.73;;
75990;SDS011;64673;52.276;10.560;2024-02-26T07:14:02;1.20;;;0.47;;
75990;SDS011;64673;52.276;10.560;2024-02-26T07:16:28;2.95;;;0.95;;
75990;SDS011;64673;52.276;10.560;2024-02-26T07:18:53;0.38;;;0.25;;
75990;SDS011;64673;52.276;10.560;2024-02-26T07:21:19;0.20;;;0.20;;
75990;SDS011;64673;52.276;10.560;2024-02-26T07:23:44;0.88;;;0.82;;
75990;SDS011;64673;52.276;10.560;2024-02-26T07:26:10;0.70;;;0.47;;
75990;SDS011;64673;52.276;10.560;2024-02-26T07:28:37;0.70;;;0.70;;
75990;SDS011;64673;52.276;10.560;2024-02-26T07:31:02;2.30;;;0.52;;
75990;SDS011;64673;52.276;10.560;2024-02-26T07:33:28;1.00;;;0.63;;
75990;SDS011;64673;52.276;10.560;2024-02-26T07:35:53;0.40;;;0.35;;
75990;SDS011;64673;52.276;10.560;2024-02-26T07:38:19;0.67;;;0.40;;
75990;SDS011;64673;52.276;10.560;2024-02-26T07:40:44;1.02;;;0.73;;
75990;SDS011;64673;52.276;10.560;2024-02-26T07:43:10;0.13;;;0.13;;
75990;SDS011;64673;52.276;10.560;2024-02-26T07:45:35;1.40;;;0.75;;
75990;SDS011;64673;52.276;10.560;2024-02-26T07:48:01;0.30;;;0.30;;
75990;SDS011;64673;52.276;10.560;2024-02-26T07:50:27;1.33;;;0.63;;
75990;SDS011;64673;52.276;10.560;2024-02-26T07:52:52;0.20;;;0.17;;
75990;SDS011;64673;52.276;10.560;2024-02-26T07:55:18;2.47;;;0.77;;
75990;SDS011;64673;52.276;10.560;2024-02-26T07:57:44;0.88;;;0.38;;
75990;SDS011;64673;52.276;10.560;2024-02-26T08:00:10;1.58;;;1.05;;
75990;SDS011;64673;52.276;10.560;2024-02-26T08:02:36;1.63;;;0.73;;
75990;SDS011;64673;52.276;10.560;2024-02-26T08:05:01;4.63;;;0.95;;
75990;SDS011;64673;52.276;10.560;2024-02-26T08:07:27;1.65;;;0.57;;
75990;SDS011;64673;52.276;10.560;2024-02-26T08:09:53;0.40;;;0.38;;
75990;SDS011;64673;52.276;10.560;2024-02-26T08:12:19;0.52;;;0.43;;
75990;SDS011;64673;52.276;10.560;2024-02-26T08:14:44;0.17;;;0.10;;
75990;SDS011;64673;52.276;10.560;2024-02-26T08:17:09;1.52;;;0.68;;
75990;SDS011;64673;52.276;10.560;2024-02-26T08:19:35;0.88;;;0.50;;
75990;SDS011;64673;52.276;10.560;2024-02-26T08:22:00;0.15;;;0.10;;
75990;SDS011;64673;52.276;10.560;2024-02-26T08:24:26;0.40;;;0.40;;
75990;SDS011;64673;52.276;10.560;2024-02-26T08:26:51;0.52;;;0.40;;
75990;SDS011;64673;52.276;10.560;2024-02-26T08:29:17;0.32;;;0.32;;
75990;SDS011;64673;52.276;10.560;2024-02-26T08:31:42;2.88;;;0.57;;
75990;SDS011;64673;52.276;10.560;2024-02-26T08:34:07;0.65;;;0.65;;
75990;SDS011;64673;52.276;10.560;2024-02-26T08:36:33;0.75;;;0.55;;
75990;SDS011;64673;52.276;10.560;2024-02-26T08:38:59;0.22;;;0.22;;
75990;SDS011;64673;52.276;10.560;2024-02-26T08:41:24;0.28;;;0.25;;
75990;SDS011;64673;52.276;10.560;2024-02-26T08:43:50;1.38;;;0.32;;
75990;SDS011;64673;52.276;10.560;2024-02-26T08:46:15;0.77;;;0.73;;
75990;SDS011;64673;52.276;10.560;2024-02-26T08:48:40;1.42;;;0.43;;
75990;SDS011;64673;52.276;10.560;2024-02-26T08:51:06;0.75;;;0.50;;
75990;SDS011;64673;52.276;10.560;2024-02-26T08:53:32;0.60;;;0.50;;
75990;SDS011;64673;52.276;10.560;2024-02-26T08:55:57;1.27;;;0.68;;
75990;SDS011;64673;52.276;10.560;2024-02-26T08:58:23;0.28;;;0.17;;
75990;SDS011;64673;52.276;10.560;2024-02-26T09:00:48;1.00;;;0.90;;
75990;SDS011;64673;52.276;10.560;2024-02-26T09:03:13;1.65;;;0.75;;
75990;SDS011;64673;52.276;10.560;2024-02-26T09:05:39;0.65;;;0.45;;
75990;SDS011;64673;52.276;10.560;2024-02-26T09:08:04;1.02;;;0.40;;
75990;SDS011;64673;52.276;10.560;2024-02-26T09:10:30;2.17;;;0.65;;
75990;SDS011;64673;52.276;10.560;2024-02-26T09:12:55;1.25;;;0.68;;
75990;SDS011;64673;52.276;10.560;2024-02-26T09:15:20;0.10;;;0.10;;
75990;SDS011;64673;52.276;10.560;2024-02-26T09:17:46;0.90;;;0.68;;
75990;SDS011;64673;52.276;10.560;2024-02-26T09:20:15;0.85;;;0.50;;
75990;SDS011;64673;52.276;10.560;2024-02-26T09:22:41;0.70;;;0.38;;
75990;SDS011;64673;52.276;10.560;2024-02-26T09:25:07;2.25;;;0.63;;
75990;SDS011;64673;52.276;10.560;2024-02-26T09:27:33;6.68;;;0.40;;
75990;SDS011;64673;52.276;10.560;2024-02-26T09:29:58;0.73;;;0.20;;
75990;SDS011;64673;52.276;10.560;2024-02-26T09:32:23;0.70;;;0.60;;
75990;SDS011;64673;52.276;10.560;2024-02-26T09:34:49;0.28;;;0.28;;
75990;SDS011;64673;52.276;10.560;2024-02-26T09:37:15;3.60;;;0.40;;
75990;SDS011;64673;52.276;10.560;2024-02-26T09:39:40;0.90;;;0.70;;
75990;SDS011;64673;52.276;10.560;2024-02-26T09:42:05;1.10;;;0.55;;
75990;SDS011;64673;52.276;10.560;2024-02-26T09:44:35;0.30;;;0.28;;
75990;SDS011;64673;52.276;10.560;2024-02-26T09:47:03;0.55;;;0.30;;
75990;SDS011;64673;52.276;10.560;2024-02-26T09:49:30;0.63;;;0.40;;
75990;SDS011;64673;52.276;10.560;2024-02-26T09:51:55;0.68;;;0.63;;
75990;SDS011;64673;52.276;10.560;2024-02-26T09:54:23;1.17;;;0.70;;
75990;SDS011;64673;52.276;10.560;2024-02-26T09:56:51;0.70;;;0.70;;
75990;SDS011;64673;52.276;10.560;2024-02-26T09:59:19;0.43;;;0.43;;
75990;SDS011;64673;52.276;10.560;2024-02-26T10:01:45;0.90;;;0.80;;
75990;SDS011;64673;52.276;10.560;2024-02-26T10:04:12;0.20;;;0.20;;
75990;SDS011;64673;52.276;10.560;2024-02-26T10:06:38;4.55;;;0.80;;
75990;SDS011;64673;52.276;10.560;2024-02-26T10:09:03;0.47;;;0.40;;
75990;SDS011;64673;52.276;10.560;2024-02-26T10:11:31;1.00;;;0.55;;
75990;SDS011;64673;52.276;10.560;2024-02-26T10:13:57;7.40;;;0.77;;
75990;SDS011;64673;52.276;10.560;2024-02-26T10:16:22;0.40;;;0.30;;
75990;SDS011;64673;52.276;10.560;2024-02-26T10:18:49;0.98;;;0.80;;
75990;SDS011;64673;52.276;10.560;2024-02-26T10:21:16;0.20;;;0.17;;
75990;SDS011;64673;52.276;10.560;2024-02-26T10:23:43;0.30;;;0.15;;
75990;SDS011;64673;52.276;10.560;2024-02-26T10:26:10;1.73;;;0.77;;
75990;SDS011;64673;52.276;10.560;2024-02-26T10:28:37;0.52;;;0.30;;
75990;SDS011;64673;52.276;10.560;2024-02-26T10:31:02;0.75;;;0.28;;
75990;SDS011;64673;52.276;10.560;2024-02-26T10:33:28;0.88;;;0.43;;
75990;SDS011;64673;52.276;10.560;2024-02-26T10:35:53;0.90;;;0.55;;
75990;SDS011;64673;52.276;10.560;2024-02-26T10:38:20;1.63;;;1.52;;
75990;SDS011;64673;52.276;10.560;2024-02-26T10:40:46;0.43;;;0.28;;
75990;SDS011;64673;52.276;10.560;2024-02-26T10:48:09;0.28;;;0.25;;
75990;SDS011;64673;52.276;10.560;2024-02-26T10:50:36;1.45;;;0.65;;
75990;SDS011;64673;52.276;10.560;2024-02-26T10:53:01;0.98;;;0.60;;
75990;SDS011;64673;52.276;10.560;2024-02-26T10:55:30;1.67;;;1.05;;
75990;SDS011;64673;52.276;10.560;2024-02-26T10:57:58;4.43;;;0.85;;
75990;SDS011;64673;52.276;10.560;2024-02-26T11:00:23;0.70;;;0.50;;
75990;SDS011;64673;52.276;10.560;2024-02-26T11:02:49;1.70;;;1.42;;
75990;SDS011;64673;52.276;10.560;2024-02-26T11:05:16;0.70;;;0.45;;
75990;SDS011;64673;52.276;10.560;2024-02-26T11:07:42;2.42;;;0.93;;
75990;SDS011;64673;52.276;10.560;2024-02-26T11:10:09;1.17;;;0.65;;
75990;SDS011;64673;52.276;10.560;2024-02-26T11:12:36;1.00;;;0.93;;
75990;SDS011;64673;52.276;10.560;2024-02-26T11:15:04;1.60;;;0.85;;
75990;SDS011;64673;52.276;10.560;2024-02-26T11:17:30;1.45;;;0.65;;
75990;SDS011;64673;52.276;10.560;2024-02-26T11:19:57;1.65;;;0.73;;
75990;SDS011;64673;52.276;10.560;2024-02-26T11:22:24;0.75;;;0.73;;
75990;SDS011;64673;52.276;10.560;2024-02-26T11:24:51;0.80;;;0.65;;
75990;SDS011;64673;52.276;10.560;2024-02-26T11:27:19;2.30;;;1.23;;
75990;SDS011;64673;52.276;10.560;2024-02-26T11:29:49;5.15;;;1.05;;
75990;SDS011;64673;52.276;10.560;2024-02-26T11:32:17;1.13;;;0.55;;
75990;SDS011;64673;52.276;10.560;2024-02-26T11:34:42;0.90;;;0.40;;
75990;SDS011;64673;52.276;10.560;2024-02-26T11:37:12;1.27;;;0.47;;
75990;SDS011;64673;52.276;10.560;2024-02-26T11:39:42;1.83;;;1.35;;
75990;SDS011;64673;52.276;10.560;2024-02-26T11:42:09;1.13;;;0.93;;
75990;SDS011;64673;52.276;10.560;2024-02-26T11:44:38;1.45;;;0.80;;
75990;SDS011;64673;52.276;10.560;2024-02-26T11:49:35;1.05;;;0.75;;
75990;SDS011;64673;52.276;10.560;2024-02-26T11:52:00;0.85;;;0.70;;
75990;SDS011;64673;52.276;10.560;2024-02-26T11:55:14;2.10;;;0.73;;
75990;SDS011;64673;52.276;10.560;2024-02-26T11:59:53;2.75;;;1.40;;
75990;SDS011;64673;52.276;10.560;2024-02-26T12:05:13;1.42;;;0.88;;
75990;SDS011;64673;52.276;10.560;2024-02-26T12:07:45;1.05;;;0.57;;
75990;SDS011;64673;52.276;10.560;2024-02-26T12:12:41;2.28;;;0.95;;
75990;SDS011;64673;52.276;10.560;2024-02-26T12:15:06;0.52;;;0.35;;
75990;SDS011;64673;52.276;10.560;2024-02-26T12:17:33;1.33;;;0.95;;
75990;SDS011;64673;52.276;10.560;2024-02-26T12:20:09;2.38;;;1.83;;
75990;SDS011;64673;52.276;10.560;2024-02-26T12:22:35;1.95;;;0.93;;
75990;SDS011;64673;52.276;10.560;2024-02-26T12:25:04;1.77;;;1.25;;
75990;SDS011;64673;52.276;10.560;2024-02-26T12:27:30;1.45;;;0.82;;
75990;SDS011;64673;52.276;10.560;2024-02-26T12:29:56;1.05;;;0.63;;
75990;SDS011;64673;52.276;10.560;2024-02-26T12:32:21;1.75;;;0.95;;
75990;SDS011;64673;52.276;10.560;2024-02-26T12:34:48;1.98;;;1.30;;
75990;SDS011;64673;52.276;10.560;2024-02-26T12:37:14;2.90;;;1.35;;
75990;SDS011;64673;52.276;10.560;2024-02-26T12:39:40;3.35;;;1.67;;
75990;SDS011;64673;52.276;10.560;2024-02-26T12:42:06;2.38;;;2.08;;
75990;SDS011;64673;52.276;10.560;2024-02-26T12:44:32;3.33;;;1.75;;
75990;SDS011;64673;52.276;10.560;2024-02-26T12:47:00;2.28;;;1.23;;
75990;SDS011;64673;52.276;10.560;2024-02-26T12:49:29;2.75;;;1.27;;
75990;SDS011;64673;52.276;10.560;2024-02-26T12:51:55;1.92;;;1.05;;
75990;SDS011;64673;52.276;10.560;2024-02-26T12:54:27;1.88;;;1.13;;
75990;SDS011;64673;52.276;10.560;2024-02-26T12:56:53;2.67;;;1.25;;
75990;SDS011;64673;52.276;10.560;2024-02-26T12:59:19;1.65;;;1.08;;
75990;SDS011;64673;52.276;10.560;2024-02-26T13:01:45;2.22;;;1.42;;
75990;SDS011;64673;52.276;10.560;2024-02-26T13:04:10;3.78;;;1.25;;
75990;SDS011;64673;52.276;10.560;2024-02-26T13:06:36;2.88;;;1.55;;
75990;SDS011;64673;52.276;10.560;2024-02-26T13:09:01;2.63;;;1.08;;
75990;SDS011;64673;52.276;10.560;2024-02-26T13:11:28;3.00;;;1.80;;
75990;SDS011;64673;52.276;10.560;2024-02-26T13:13:54;3.47;;;1.38;;
75990;SDS011;64673;52.276;10.560;2024-02-26T13:16:20;1.50;;;1.17;;
75990;SDS011;64673;52.276;10.560;2024-02-26T13:18:49;2.83;;;1.67;;
75990;SDS011;64673;52.276;10.560;2024-02-26T13:21:15;3.42;;;1.10;;
75990;SDS011;64673;52.276;10.560;2024-02-26T13:23:41;2.88;;;1.05;;
75990;SDS011;64673;52.276;10.560;2024-02-26T13:26:07;3.08;;;1.23;;
75990;SDS011;64673;52.276;10.560;2024-02-26T13:28:33;8.52;;;1.58;;
75990;SDS011;64673;52.276;10.560;2024-02-26T13:30:59;2.60;;;1.60;;
75990;SDS011;64673;52.276;10.560;2024-02-26T13:33:27;1.40;;;0.82;;
75990;SDS011;64673;52.276;10.560;2024-02-26T13:35:54;7.50;;;2.63;;
75990;SDS011;64673;52.276;10.560;2024-02-26T13:38:20;2.13;;;1.27;;
75990;SDS011;64673;52.276;10.560;2024-02-26T13:40:46;2.65;;;1.67;;
75990;SDS011;64673;52.276;10.560;2024-02-26T13:43:11;1.70;;;1.05;;
75990;SDS011;64673;52.276;10.560;2024-02-26T13:45:37;2.88;;;1.70;;
75990;SDS011;64673;52.276;10.560;2024-02-26T13:48:07;5.03;;;1.60;;
75990;SDS011;64673;52.276;10.560;2024-02-26T13:50:35;5.60;;;1.80;;
75990;SDS011;64673;52.276;10.560;2024-02-26T13:53:00;4.40;;;1.80;;
75990;SDS011;64673;52.276;10.560;2024-02-26T13:55:25;3.38;;;1.83;;
75990;SDS011;64673;52.276;10.560;2024-02-26T13:57:53;4.53;;;2.00;;
75990;SDS011;64673;52.276;10.560;2024-02-26T14:00:19;3.22;;;2.35;;
75990;SDS011;64673;52.276;10.560;2024-02-26T14:02:45;4.88;;;2.30;;
75990;SDS011;64673;52.276;10.560;2024-02-26T14:05:10;6.50;;;2.00;;
75990;SDS011;64673;52.276;10.560;2024-02-26T14:07:35;3.70;;;1.85;;
75990;SDS011;64673;52.276;10.560;2024-02-26T14:10:01;2.88;;;1.63;;
75990;SDS011;64673;52.276;10.560;2024-02-26T14:12:26;3.25;;;1.83;;
75990;SDS011;64673;52.276;10.560;2024-02-26T14:14:52;3.17;;;1.85;;
75990;SDS011;64673;52.276;10.560;2024-02-26T14:17:20;1.67;;;0.93;;
75990;SDS011;64673;52.276;10.560;2024-02-26T14:19:45;3.28;;;1.60;;
75990;SDS011;64673;52.276;10.560;2024-02-26T14:22:13;2.22;;;1.55;;
75990;SDS011;64673;52.276;10.560;2024-02-26T14:24:40;1.77;;;1.40;;
75990;SDS011;64673;52.276;10.560;2024-02-26T14:27:07;1.98;;;1.23;;
75990;SDS011;64673;52.276;10.560;2024-02-26T14:29:33;1.95;;;1.17;;
75990;SDS011;64673;52.276;10.560;2024-02-26T14:31:59;2.97;;;1.63;;
75990;SDS011;64673;52.276;10.560;2024-02-26T14:34:26;3.90;;;1.40;;
75990;SDS011;64673;52.276;10.560;2024-02-26T14:36:52;2.33;;;1.75;;
75990;SDS011;64673;52.276;10.560;2024-02-26T14:39:17;2.65;;;1.50;;
75990;SDS011;64673;52.276;10.560;2024-02-26T14:41:43;3.35;;;2.20;;